Latest Weather Observations for ACT PCS2

IDN60801

Issued at 9:53 pm EST Thursday 24 September 2020 (issued every 10 minutes, with the page automatically refreshed every 10 minutes)

About weather observations | Map of weather stations | Latest weather observations for NSW | Other Formats
Station Details ID: 250105 Name: ACT PCS2 Lat: -35.33 Lon: 149.05 Height: 552.0 m

Portable automatic weather stations (PAWS) are operated by other organisations, such as Fire and Emergency Services, and are included here by agreement. Portable stations may be deployed to a location for a short period and their location may be subject to change without notice. Wind observations from these stations are provided from heights of either three (3) or ten (10) metres above ground level (AGL).

Data from the previous 72 hours. | See also: Recent months for locations in New South Wales
Date/Time
EST
Temp
°C
App
Temp
°C
Dew
Point
°C
Rel
Hum
%
Delta-T
°C
Wind Press
QNH
hPa
Press
MSL
hPa
Rain since
9am
mm
Dir  Spd
km/h
Gust
km/h
Spd
kts
Gust
kts
24/09:40pm 7.0 4.9 3.7 79 1.5 N 4 6 2 3 - - 0.0
24/09:30pm 7.6 5.4 3.3 74 1.9 NW 4 6 2 3 - - 0.0
24/09:20pm 7.8 5.5 2.8 70 2.2 WNW 4 6 2 3 - - 0.0
24/09:10pm 8.0 5.6 2.3 67 2.5 W 4 6 2 3 - - 0.0
24/09:00pm 8.1 5.3 2.3 67 2.5 W 6 6 3 3 - - 0.0
24/08:50pm 8.3 5.5 2.1 65 2.7 W 6 7 3 4 - - 0.0
24/08:40pm 8.4 5.6 2.2 65 2.7 W 6 7 3 4 - - 0.0
24/08:30pm 8.5 5.7 2.2 64 2.7 W 6 7 3 4 - - 0.0
24/08:20pm 8.5 5.7 2.2 64 2.7 W 6 7 3 4 - - 0.0
24/08:10pm 8.7 6.0 2.4 64 2.7 W 6 7 3 4 - - 0.0
24/08:00pm 8.9 6.0 2.4 64 2.8 W 7 11 4 6 - - 0.0
24/07:50pm 9.0 6.1 2.4 63 2.9 W 7 9 4 5 - - 0.0
24/07:40pm 9.1 5.8 2.6 64 2.8 W 9 11 5 6 - - 0.0
24/07:30pm 8.9 6.2 2.7 65 2.7 WNW 6 9 3 5 - - 0.0
24/07:20pm 9.0 6.5 3.8 70 2.3 NNW 6 7 3 4 - - 0.0
24/07:10pm 9.0 6.4 3.0 66 2.6 WNW 6 7 3 4 - - 0.0
24/07:00pm 9.0 6.3 2.9 65 2.7 WNW 6 7 3 4 - - 0.0
24/06:50pm 9.1 6.5 3.1 66 2.7 WNW 6 6 3 3 - - 0.0
24/06:40pm 9.3 6.7 3.1 65 2.8 WNW 6 6 3 3 - - 0.0
24/06:30pm 9.5 6.8 2.8 63 3.0 W 6 7 3 4 - - 0.0
24/06:20pm 9.8 7.1 2.8 61 3.1 WNW 6 6 3 3 - - 0.0
24/06:10pm 10.1 7.2 2.4 59 3.4 WNW 7 9 4 5 - - 0.0
24/06:00pm 10.1 7.2 2.6 59 3.3 WNW 7 7 4 4 - - 0.0
24/05:50pm 10.4 7.5 2.6 58 3.5 NW 7 11 4 6 - - 0.0
24/05:40pm 10.5 7.5 2.0 55 3.7 W 7 9 4 5 - - 0.0
24/05:30pm 10.8 7.8 2.2 55 3.8 W 7 9 4 5 - - 0.0
24/05:20pm 11.3 8.3 2.1 53 4.1 W 7 11 4 6 - - 0.0
24/05:10pm 11.9 8.5 1.7 49 4.5 W 9 11 5 6 - - 0.0
24/05:00pm 12.1 8.2 1.4 48 4.7 W 11 15 6 8 - - 0.0
24/04:50pm 11.9 8.1 1.6 49 4.5 W 11 15 6 8 - - 0.0
24/04:40pm 11.5 7.2 1.0 48 4.5 W 13 15 7 8 - - 0.0
24/04:30pm 11.8 7.9 1.0 47 4.7 W 11 13 6 7 - - 0.0
24/04:20pm 11.9 7.6 1.2 48 4.7 WNW 13 17 7 9 - - 0.0
24/04:10pm 12.5 8.7 2.0 48 4.7 WNW 11 13 6 7 - - 0.0
24/04:00pm 12.5 8.8 2.6 51 4.5 W 11 13 6 7 - - 0.0
24/03:50pm 11.8 8.1 2.3 52 4.2 W 11 15 6 8 - - 0.0
24/03:40pm 12.7 9.4 2.3 49 4.7 W 9 11 5 6 - - 0.0
24/03:30pm 13.4 9.6 2.0 46 5.1 W 11 13 6 7 - - 0.0
24/03:20pm 12.9 9.0 1.2 45 5.1 W 11 15 6 8 - - 0.0
24/03:10pm 13.3 9.1 1.8 45 5.1 W 13 15 7 8 - - 0.0
24/03:00pm 13.5 8.8 1.2 43 5.4 W 15 17 8 9 - - 0.0
24/02:50pm 13.1 8.6 2.3 48 4.9 W 15 19 8 10 - - 0.0
24/02:40pm 12.8 7.5 1.6 46 5.0 W 19 24 10 13 - - 0.0
24/02:30pm 12.9 7.6 3.1 51 4.5 WNW 20 22 11 12 - - 0.0
24/02:20pm 12.7 7.0 2.9 51 4.5 W 22 24 12 13 - - 0.0
24/02:10pm 13.1 8.4 2.9 50 4.7 W 17 24 9 13 - - 0.0
24/02:00pm 12.9 8.3 3.5 53 4.3 W 17 22 9 12 - - 0.0
24/01:50pm 12.4 7.4 3.7 55 4.0 WNW 19 24 10 13 - - 0.0
24/01:40pm 12.5 7.6 4.1 56 3.9 W 19 24 10 13 - - 0.0
24/01:30pm 12.4 6.8 3.6 55 4.1 W 22 24 12 13 - - 0.0
24/01:20pm 13.1 8.6 4.1 54 4.2 W 17 20 9 11 - - 0.0
24/01:10pm 13.0 8.3 3.0 50 4.6 WNW 17 20 9 11 - - 0.0
24/01:00pm 12.7 8.2 4.0 55 4.1 WNW 17 19 9 10 - - 0.0
24/12:50pm 12.5 8.0 4.4 58 3.8 W 17 19 9 10 - - 0.0
24/12:40pm 13.5 9.0 4.1 53 4.4 W 17 24 9 13 - - 0.0
24/12:30pm 13.0 8.3 3.4 52 4.4 W 17 20 9 11 - - 0.0
24/12:20pm 12.8 8.6 3.9 54 4.1 W 15 19 8 10 - - 0.0
24/12:10pm 12.7 8.5 4.0 55 4.1 WNW 15 17 8 9 - - 0.0
24/12:00pm 12.4 8.2 3.9 56 3.9 WNW 15 19 8 10 - - 0.0
24/11:50am 12.3 7.8 4.0 57 3.9 WNW 17 20 9 11 - - 0.0
24/11:40am 11.2 6.9 3.4 58 3.5 W 15 20 8 11 - - 0.0
24/11:30am 11.4 7.4 3.1 56 3.8 WSW 13 15 7 8 - - 0.0
24/11:20am 10.9 7.1 3.7 61 3.3 WSW 13 19 7 10 - - 0.0
24/11:10am 11.4 8.0 4.1 61 3.4 SW 11 15 6 8 - - 0.0
24/11:00am 11.8 8.0 3.7 57 3.7 SW 13 19 7 10 - - 0.0
24/10:50am 11.8 7.5 3.2 55 3.9 WSW 15 20 8 11 - - 0.0
24/10:40am 12.9 8.5 2.7 50 4.6 WSW 15 17 8 9 - - 0.0
24/10:30am 12.7 8.4 3.2 52 4.4 WSW 15 17 8 9 - - 0.0
24/10:20am 12.2 7.9 3.4 55 4.0 W 15 19 8 10 - - 0.0
24/10:10am 12.4 7.8 3.6 55 4.1 W 17 22 9 12 - - 0.0
24/10:00am 12.2 7.7 4.0 57 3.8 W 17 19 9 10 - - 0.0
24/09:50am 12.1 7.9 3.7 56 3.9 W 15 17 8 9 - - 0.0
24/09:40am 12.2 8.5 4.4 59 3.7 W 13 17 7 9 - - 0.0
24/09:30am 11.8 7.2 3.8 58 3.7 W 17 22 9 12 - - 0.0
24/09:20am 11.6 6.9 3.1 56 3.8 WNW 17 20 9 11 - - 0.0
24/09:10am 11.7 7.5 3.7 58 3.7 W 15 17 8 9 - - 0.0
24/09:00am 11.8 8.0 4.0 59 3.6 W 13 15 7 8 - - 1.8
24/08:50am 11.2 7.5 4.2 62 3.2 WNW 13 17 7 9 - - 1.8
24/08:40am 11.2 7.9 4.6 64 3.1 WNW 11 15 6 8 - - 1.8
24/08:30am 10.8 7.1 4.3 64 3.0 W 13 17 7 9 - - 1.8
24/08:20am 10.7 6.5 4.0 63 3.1 WNW 15 19 8 10 - - 1.8
24/08:10am 10.7 6.5 3.8 62 3.1 W 15 17 8 9 - - 1.8
24/08:00am 10.6 7.3 4.5 66 2.8 W 11 13 6 7 - - 1.8
24/07:50am 10.3 7.1 4.9 69 2.5 WNW 11 13 6 7 - - 1.8
24/07:40am 10.1 7.2 4.7 69 2.5 WNW 9 13 5 7 - - 1.8
24/07:30am 10.0 7.7 5.5 73 2.1 NW 7 9 4 5 - - 1.8
24/07:20am 9.8 7.5 5.5 74 2.0 NW 7 9 4 5 - - 1.8
24/07:10am 9.6 7.5 5.8 77 1.8 NNW 6 7 3 4 - - 1.8
24/07:00am 9.2 7.2 6.1 81 1.5 NNW 6 6 3 3 - - 1.8
24/06:50am 8.3 6.2 5.9 85 1.1 NW 6 7 3 4 - - 1.8
24/06:40am 7.9 6.2 6.0 88 0.9 NW 4 6 2 3 - - 1.8
24/06:30am 7.6 5.9 5.9 89 0.8 NNW 4 6 2 3 - - 1.8
24/06:20am 7.5 5.8 6.1 91 0.7 NNW 4 6 2 3 - - 1.8
24/06:10am 7.4 5.7 6.1 91 0.6 NW 4 4 2 2 - - 1.6
24/06:00am 7.4 5.3 6.0 91 0.7 NW 6 7 3 4 - - 1.6
24/05:50am 7.4 5.1 5.9 90 0.7 NW 7 9 4 5 - - 1.6
24/05:40am 7.5 5.4 5.9 90 0.7 NW 6 7 3 4 - - 1.6
24/05:30am 7.6 5.3 5.8 88 0.8 WNW 7 7 4 4 - - 1.6
24/05:20am 7.6 5.3 5.8 88 0.8 NW 7 7 4 4 - - 1.6
24/05:10am 7.7 5.4 5.7 87 0.9 NW 7 9 4 5 - - 1.6
24/05:00am 7.7 5.9 5.6 86 1.0 NW 4 7 2 4 - - 1.6
24/04:50am 7.7 5.5 5.5 86 1.0 NW 6 7 3 4 - - 1.6
24/04:40am 7.8 5.6 5.4 85 1.1 NW 6 6 3 3 - - 1.6
24/04:30am 7.9 5.7 5.3 84 1.2 WNW 6 7 3 4 - - 1.6
24/04:20am 7.9 5.7 5.3 84 1.2 WNW 6 7 3 4 - - 1.6
24/04:10am 7.9 5.5 5.3 84 1.2 WNW 7 9 4 5 - - 1.6
24/04:00am 7.8 5.4 5.3 84 1.2 WNW 7 9 4 5 - - 1.6
24/03:50am 7.8 5.4 5.4 85 1.1 WNW 7 9 4 5 - - 1.6
24/03:40am 7.8 5.5 5.6 86 1.0 WNW 7 9 4 5 - - 1.6
24/03:30am 7.7 5.4 5.5 86 1.0 WNW 7 9 4 5 - - 1.6
24/03:20am 7.7 5.4 5.5 86 1.0 WNW 7 7 4 4 - - 1.6
24/03:10am 7.6 5.2 5.3 85 1.1 WNW 7 9 4 5 - - 1.6
24/03:00am 7.7 5.3 5.4 85 1.1 NW 7 7 4 4 - - 1.6
24/02:50am 7.9 5.6 5.6 85 1.1 NW 7 9 4 5 - - 1.6
24/02:40am 7.9 5.6 5.5 85 1.1 WNW 7 9 4 5 - - 1.6
24/02:30am 7.7 5.3 5.4 85 1.1 WNW 7 7 4 4 - - 1.6
24/02:20am 7.7 5.4 5.6 86 1.0 WNW 7 9 4 5 - - 1.6
24/02:10am 7.9 5.6 5.5 85 1.1 WNW 7 9 4 5 - - 1.6
24/02:00am 8.1 5.8 5.6 84 1.2 WNW 7 9 4 5 - - 1.6
24/01:50am 8.2 5.5 5.7 84 1.2 WNW 9 13 5 7 - - 1.6
24/01:40am 8.3 5.6 5.5 82 1.3 WNW 9 11 5 6 - - 1.6
24/01:30am 8.2 5.8 5.4 82 1.3 WNW 7 9 4 5 - - 1.6
24/01:20am 8.0 5.7 5.0 81 1.4 NW 6 9 3 5 - - 1.6
24/01:10am 8.2 6.0 5.5 83 1.3 NW 6 7 3 4 - - 1.6
24/01:00am 8.3 6.2 5.8 84 1.2 WNW 6 7 3 4 - - 1.6
24/12:50am 8.2 5.9 5.7 84 1.2 WNW 7 7 4 4 - - 1.6
24/12:40am 7.9 5.8 6.0 88 0.9 WNW 6 7 3 4 - - 1.6
24/12:30am 8.0 6.0 6.3 89 0.8 WNW 6 7 3 4 - - 1.6
24/12:20am 8.1 6.0 6.5 90 0.8 WNW 7 9 4 5 - - 1.6
24/12:10am 8.1 6.2 6.5 90 0.8 NW 6 7 3 4 - - 1.6
24/12:00am 8.1 5.9 6.2 88 0.9 WNW 7 7 4 4 - - 1.6
 
Date/Time
EST
Temp
°C
App
Temp
°C
Dew
Point
°C
Rel
Hum
%
Delta-T
°C
Wind Press
QNH
hPa
Press
MSL
hPa
Rain since
9am
mm
Dir  Spd
km/h
Gust
km/h
Spd
kts
Gust
kts
23/11:50pm 8.1 5.5 6.2 88 0.9 NW 9 11 5 6 - - 1.6
23/11:40pm 8.2 5.6 6.1 87 1.0 NW 9 11 5 6 - - 1.6
23/11:30pm 8.3 6.0 5.7 84 1.2 NW 7 11 4 6 - - 1.6
23/11:20pm 8.6 6.5 5.8 82 1.3 NW 6 6 3 3 - - 1.6
23/11:10pm 9.0 6.7 5.8 80 1.5 WNW 7 9 4 5 - - 1.6
23/11:00pm 9.1 6.2 4.9 75 1.9 W 9 13 5 7 - - 1.6
23/10:50pm 8.8 5.9 4.4 74 2.0 W 9 11 5 6 - - 1.6
23/10:40pm 8.2 5.7 4.8 79 1.6 WNW 7 11 4 6 - - 1.6
23/10:30pm 8.3 5.9 5.4 82 1.3 WNW 7 9 4 5 - - 1.6
23/10:20pm 8.8 6.1 5.7 81 1.5 WNW 9 13 5 7 - - 1.6
23/10:10pm 8.5 5.6 4.4 75 1.9 W 9 11 5 6 - - 1.6
23/10:00pm 8.4 5.5 4.8 78 1.6 W 9 15 5 8 - - 1.6
23/09:50pm 8.5 5.7 5.2 80 1.5 W 9 11 5 6 - - 1.6
23/09:40pm 8.5 6.1 5.4 81 1.4 W 7 9 4 5 - - 1.4
23/09:30pm 8.6 6.3 5.6 81 1.4 NW 7 9 4 5 - - 1.4
23/09:20pm 8.6 6.1 5.0 78 1.7 WNW 7 11 4 6 - - 1.4
23/09:10pm 8.4 6.1 5.0 79 1.6 WNW 6 7 3 4 - - 1.4
23/09:00pm 8.4 6.2 5.3 81 1.4 WNW 6 7 3 4 - - 1.4
23/08:50pm 8.5 6.0 4.9 78 1.7 WNW 7 9 4 5 - - 1.4
23/08:40pm 8.6 5.6 4.3 74 2.0 W 9 11 5 6 - - 1.4
23/08:30pm 8.5 6.0 4.7 77 1.7 W 7 9 4 5 - - 1.4
23/08:20pm 8.6 5.7 4.8 77 1.7 W 9 13 5 7 - - 1.4
23/08:10pm 8.6 6.2 5.1 79 1.6 W 7 9 4 5 - - 1.4
23/08:00pm 8.5 6.1 5.3 80 1.5 W 7 9 4 5 - - 1.4
23/07:50pm 8.2 6.0 5.4 82 1.3 WNW 6 7 3 4 - - 1.2
23/07:40pm 8.5 6.3 5.5 81 1.4 WNW 6 7 3 4 - - 1.2
23/07:30pm 8.8 6.4 5.3 79 1.6 WNW 7 9 4 5 - - 1.2
23/07:20pm 9.2 6.7 4.9 74 2.0 WNW 7 9 4 5 - - 1.2
23/07:10pm 9.3 6.7 4.4 71 2.2 WNW 7 13 4 7 - - 1.2
23/07:00pm 9.3 5.5 3.9 69 2.4 W 13 17 7 9 - - 1.2
23/06:50pm 9.1 6.1 4.0 70 2.3 W 9 13 5 7 - - 1.2
23/06:40pm 9.4 5.7 4.3 70 2.3 W 13 17 7 9 - - 1.2
23/06:30pm 9.3 5.9 3.8 68 2.5 W 11 17 6 9 - - 1.2
23/06:20pm 9.2 6.3 4.4 72 2.2 W 9 13 5 7 - - 1.2
23/06:10pm 9.4 6.1 4.7 72 2.2 W 11 13 6 7 - - 1.2
23/06:00pm 9.7 7.0 5.6 75 1.9 WNW 9 11 5 6 - - 1.2
23/05:50pm 10.4 8.1 5.7 72 2.2 NW 7 11 4 6 - - 1.2
23/05:40pm 10.3 7.6 3.9 64 2.9 W 7 9 4 5 - - 1.2
23/05:30pm 10.3 7.7 4.4 67 2.7 W 7 13 4 7 - - 1.2
23/05:20pm 10.6 7.7 4.6 66 2.8 W 9 13 5 7 - - 1.2
23/05:10pm 11.2 8.2 4.3 62 3.2 W 9 15 5 8 - - 1.2
23/05:00pm 10.8 7.6 4.9 67 2.8 WSW 11 15 6 8 - - 1.2
23/04:50pm 10.3 8.2 6.5 77 1.8 WSW 7 9 4 5 - - 1.0
23/04:40pm 11.2 9.4 7.3 77 1.9 SSW 6 9 3 5 - - 1.0
23/04:30pm 11.7 9.4 5.0 63 3.2 SW 6 7 3 4 - - 0.8
23/04:20pm 12.0 9.6 5.3 63 3.2 SW 7 9 4 5 - - 0.8
23/04:10pm 12.2 8.7 5.3 62 3.3 W 13 17 7 9 - - 0.8
23/04:00pm 12.7 9.0 4.6 58 3.8 W 13 15 7 8 - - 0.8
23/03:50pm 12.8 9.1 4.5 57 3.9 W 13 19 7 10 - - 0.8
23/03:40pm 12.5 9.5 5.9 64 3.2 W 11 13 6 7 - - 0.8
23/03:30pm 11.6 8.6 7.5 76 2.0 W 13 20 7 11 - - 0.8
23/03:20pm 10.9 6.9 6.8 76 2.0 W 17 20 9 11 - - 0.6
23/03:10pm 12.7 8.5 5.7 62 3.4 W 17 20 9 11 - - 0.2
23/03:00pm 13.8 9.3 4.4 53 4.5 W 17 20 9 11 - - 0.2
23/02:50pm 14.3 9.8 4.4 51 4.7 W 17 20 9 11 - - 0.2
23/02:40pm 14.0 9.5 4.1 51 4.7 W 17 22 9 12 - - 0.2
23/02:30pm 13.1 8.7 4.6 56 4.0 W 17 20 9 11 - - 0.2
23/02:20pm 13.3 8.5 4.5 55 4.2 W 19 22 10 12 - - 0.2
23/02:10pm 13.6 9.2 4.7 55 4.2 W 17 20 9 11 - - 0.2
23/02:00pm 13.8 9.7 4.6 54 4.4 W 15 17 8 9 - - 0.2
23/01:50pm 13.1 9.0 4.3 55 4.1 W 15 20 8 11 - - 0.2
23/01:40pm 13.7 9.7 5.0 55 4.2 W 15 19 8 10 - - 0.2
23/01:30pm 13.2 8.8 4.9 57 4.0 W 17 20 9 11 - - 0.2
23/01:20pm 12.2 8.0 5.6 64 3.2 W 17 20 9 11 - - 0.2
23/01:10pm 10.9 6.2 5.3 68 2.6 W 19 22 10 12 - - 0.2
23/01:00pm 11.9 8.2 6.1 67 2.8 WSW 15 22 8 12 - - 0.0
23/12:50pm 13.0 9.3 4.5 56 4.0 WSW 13 15 7 8 - - 0.0
23/12:40pm 14.0 9.9 4.4 52 4.6 W 15 19 8 10 - - 0.0
23/12:30pm 14.1 10.0 4.3 51 4.6 WSW 15 20 8 11 - - 0.0
23/12:20pm 13.4 9.0 4.6 55 4.2 WSW 17 20 9 11 - - 0.0
23/12:10pm 13.8 9.0 4.7 54 4.3 W 19 24 10 13 - - 0.0
23/12:00pm 13.1 8.4 5.2 58 3.8 W 19 24 10 13 - - 0.0
23/11:50am 14.1 9.2 3.9 50 4.8 W 19 22 10 12 - - 0.0
23/11:40am 13.7 8.9 4.5 54 4.4 W 19 20 10 11 - - 0.0
23/11:30am 14.0 8.9 4.0 51 4.7 WNW 20 24 11 13 - - 0.0
23/11:20am 13.5 8.4 3.9 52 4.5 W 20 26 11 14 - - 0.0
23/11:10am 13.0 7.4 3.7 53 4.3 W 22 26 12 14 - - 0.0
23/11:00am 13.9 9.0 4.1 51 4.6 W 19 20 10 11 - - 0.0
23/10:50am 13.8 8.6 3.7 50 4.7 W 20 22 11 12 - - 0.0
23/10:40am 14.2 9.2 3.4 48 5.0 W 19 24 10 13 - - 0.0
23/10:30am 14.2 9.6 3.5 48 5.0 W 17 22 9 12 - - 0.0
23/10:20am 13.5 7.9 3.4 50 4.7 W 22 26 12 14 - - 0.0
23/10:10am 13.7 8.1 3.4 50 4.8 W 22 28 12 15 - - 0.0
23/10:00am 13.6 8.5 4.0 52 4.5 W 20 26 11 14 - - 0.0
23/09:50am 13.6 8.1 3.8 51 4.6 W 22 30 12 16 - - 0.0
23/09:40am 13.8 8.8 3.7 50 4.7 W 19 22 10 12 - - 0.0
23/09:30am 13.2 7.6 3.7 52 4.4 W 22 24 12 13 - - 0.0
23/09:20am 13.2 7.2 3.1 50 4.6 W 24 32 13 17 - - 0.0
23/09:10am 13.3 7.7 3.6 52 4.5 W 22 28 12 15 - - 0.0
23/09:00am 13.6 8.6 3.5 50 4.7 W 19 28 10 15 - - 0.0
23/08:50am 13.1 7.9 3.6 52 4.4 W 20 24 11 13 - - 0.0
23/08:40am 12.8 7.6 3.7 54 4.2 W 20 26 11 14 - - 0.0
23/08:30am 12.7 6.7 3.5 53 4.2 W 24 28 13 15 - - 0.0
23/08:20am 12.7 7.8 4.0 55 4.1 W 19 24 10 13 - - 0.0
23/08:10am 12.6 8.1 4.2 56 3.9 W 17 20 9 11 - - 0.0
23/08:00am 12.3 7.4 3.9 56 3.9 W 19 22 10 12 - - 0.0
23/07:50am 12.2 7.5 3.4 55 4.0 W 17 20 9 11 - - 0.0
23/07:40am 11.9 7.3 3.6 57 3.8 W 17 20 9 11 - - 0.0
23/07:30am 11.7 7.1 3.7 58 3.7 W 17 22 9 12 - - 0.0
23/07:20am 11.5 6.5 3.6 58 3.6 W 19 22 10 12 - - 0.0
23/07:10am 11.2 6.0 3.3 58 3.6 W 20 24 11 13 - - 0.0
23/07:00am 10.8 5.6 3.5 60 3.3 W 20 26 11 14 - - 0.0
23/06:50am 10.7 6.0 3.2 60 3.4 W 17 22 9 12 - - 0.0
23/06:40am 10.7 6.1 3.5 61 3.3 W 17 26 9 14 - - 0.0
23/06:30am 10.6 5.5 3.3 60 3.3 W 19 22 10 12 - - 0.0
23/06:20am 10.3 5.2 3.3 62 3.1 W 19 22 10 12 - - 0.0
23/06:10am 10.1 5.8 3.5 63 3.0 W 15 19 8 10 - - 0.0
23/06:00am 10.2 5.2 3.5 63 3.0 W 19 22 10 12 - - 0.0
23/05:50am 10.2 5.6 3.5 63 3.0 W 17 20 9 11 - - 0.0
23/05:40am 10.1 5.5 3.5 63 3.0 W 17 20 9 11 - - 0.0
23/05:30am 10.3 5.3 3.7 63 3.0 W 19 24 10 13 - - 0.0
23/05:20am 10.2 5.2 3.5 63 3.0 W 19 24 10 13 - - 0.0
23/05:10am 10.4 5.8 3.7 63 3.0 W 17 22 9 12 - - 0.0
23/05:00am 10.5 5.5 3.6 62 3.1 W 19 22 10 12 - - 0.0
23/04:50am 10.5 5.9 3.5 62 3.2 W 17 20 9 11 - - 0.0
23/04:40am 10.4 6.2 3.6 63 3.1 W 15 19 8 10 - - 0.0
23/04:30am 10.5 5.9 3.7 63 3.1 W 17 17 9 9 - - 0.0
23/04:20am 10.4 6.2 3.7 63 3.0 W 15 19 8 10 - - 0.0
23/04:10am 10.5 5.9 3.8 63 3.1 W 17 20 9 11 - - 0.0
23/04:00am 10.7 5.7 3.7 62 3.2 W 19 22 10 12 - - 0.0
23/03:50am 10.7 6.1 3.7 62 3.2 W 17 20 9 11 - - 0.0
23/03:40am 10.7 6.1 3.7 62 3.2 W 17 19 9 10 - - 0.0
23/03:30am 10.8 6.2 3.7 61 3.2 W 17 19 9 10 - - 0.0
23/03:20am 10.8 5.8 3.6 61 3.3 W 19 24 10 13 - - 0.0
23/03:10am 10.7 6.1 3.6 61 3.2 WSW 17 20 9 11 - - 0.0
23/03:00am 10.8 6.6 3.6 61 3.3 W 15 19 8 10 - - 0.0
23/02:50am 10.8 6.5 3.5 60 3.3 W 15 19 8 10 - - 0.0
23/02:40am 10.8 6.5 3.3 60 3.4 WSW 15 20 8 11 - - 0.0
23/02:30am 10.6 7.1 3.3 60 3.3 W 11 13 6 7 - - 0.0
23/02:20am 10.5 6.9 3.1 60 3.3 W 11 13 6 7 - - 0.0
23/02:10am 10.6 7.4 3.1 60 3.4 W 9 11 5 6 - - 0.0
23/02:00am 10.9 6.9 3.0 58 3.5 W 13 15 7 8 - - 0.0
23/01:50am 11.0 7.0 2.8 57 3.7 W 13 15 7 8 - - 0.0
23/01:40am 10.9 7.2 2.6 56 3.7 W 11 15 6 8 - - 0.0
23/01:30am 10.7 7.0 2.5 57 3.6 WNW 11 15 6 8 - - 0.0
23/01:20am 10.8 7.1 2.5 56 3.7 W 11 13 6 7 - - 0.0
23/01:10am 10.8 7.5 2.4 56 3.7 WNW 9 13 5 7 - - 0.0
23/01:00am 11.0 7.3 2.4 55 3.8 W 11 11 6 6 - - 0.0
23/12:50am 11.2 7.5 2.2 54 4.0 W 11 13 6 7 - - 0.0
23/12:40am 11.3 7.6 2.3 54 4.0 W 11 13 6 7 - - 0.0
23/12:30am 11.4 7.7 2.4 54 4.0 W 11 13 6 7 - - 0.0
23/12:20am 11.8 7.7 2.5 53 4.2 W 13 17 7 9 - - 0.0
23/12:10am 12.1 7.7 2.5 52 4.3 W 15 17 8 9 - - 0.0
23/12:00am 12.0 7.1 2.3 51 4.3 W 17 20 9 11 - - 0.0
 
Date/Time
EST
Temp
°C
App
Temp
°C
Dew
Point
°C
Rel
Hum
%
Delta-T
°C
Wind Press
QNH
hPa
Press
MSL
hPa
Rain since
9am
mm
Dir  Spd
km/h
Gust
km/h
Spd
kts
Gust
kts
22/11:50pm 11.7 8.3 1.9 51 4.3 WNW 9 13 5 7 - - 0.0
22/11:40pm 11.6 8.6 1.8 51 4.3 WNW 7 9 4 5 - - 0.0
22/11:30pm 11.8 8.4 1.8 50 4.4 W 9 11 5 6 - - 0.0
22/11:20pm 11.5 8.4 1.4 50 4.4 WNW 7 11 4 6 - - 0.0
22/11:10pm 11.3 8.2 1.3 50 4.3 WNW 7 7 4 4 - - 0.0
22/11:00pm 11.5 8.4 1.2 49 4.5 NW 7 9 4 5 - - 0.0
22/10:50pm 11.6 8.6 1.9 51 4.3 NW 7 7 4 4 - - 0.0
22/10:40pm 11.5 8.4 1.4 50 4.4 WNW 7 7 4 4 - - 0.0
22/10:30pm 11.6 8.5 1.5 50 4.4 WNW 7 9 4 5 - - 0.0
22/10:20pm 11.6 8.5 1.4 49 4.4 WNW 7 9 4 5 - - 0.0
22/10:10pm 11.5 8.4 1.2 49 4.5 WNW 7 9 4 5 - - 0.0
22/10:00pm 11.4 8.6 1.9 52 4.2 WNW 6 7 3 4 - - 0.0
22/09:50pm 11.5 8.6 1.5 50 4.4 WNW 6 7 3 4 - - 0.0
22/09:40pm 11.7 8.7 1.8 50 4.4 WNW 7 7 4 4 - - 0.0
22/09:30pm 11.8 9.0 2.0 51 4.3 WNW 6 7 3 4 - - 0.0
22/09:20pm 12.1 9.1 2.3 51 4.4 WNW 7 9 4 5 - - 0.0
22/09:10pm 12.0 9.0 2.2 51 4.4 W 7 9 4 5 - - 0.0
22/09:00pm 12.2 9.3 2.7 52 4.3 W 7 9 4 5 - - 0.0
22/08:50pm 12.2 9.2 2.3 51 4.4 WNW 7 7 4 4 - - 0.0
22/08:40pm 12.3 9.6 2.7 52 4.3 W 6 6 3 3 - - 0.0
22/08:30pm 12.6 9.7 2.5 50 4.6 WNW 7 9 4 5 - - 0.0
22/08:20pm 12.8 9.5 2.2 48 4.8 WNW 9 15 5 8 - - 0.0
22/08:10pm 12.9 10.1 3.1 51 4.5 WNW 7 9 4 5 - - 0.0
22/08:00pm 13.2 10.1 3.8 53 4.4 WNW 9 11 5 6 - - 0.0
22/07:50pm 13.5 9.7 4.1 53 4.4 W 13 15 7 8 - - 0.0
22/07:40pm 13.6 9.8 3.8 51 4.6 W 13 17 7 9 - - 0.0
22/07:30pm 13.5 10.1 3.9 52 4.5 W 11 15 6 8 - - 0.0
22/07:20pm 13.7 10.8 4.6 54 4.3 WNW 9 13 5 7 - - 0.0
22/07:10pm 13.5 10.6 4.7 55 4.2 WNW 9 11 5 6 - - 0.0
22/07:00pm 13.5 10.8 5.5 58 3.9 NW 9 9 5 5 - - 0.0
22/06:50pm 13.5 11.2 5.8 59 3.8 NW 7 11 4 6 - - 0.0
22/06:40pm 13.8 11.2 6.1 59 3.8 NW 9 11 5 6 - - 0.0
22/06:30pm 14.0 10.9 5.7 57 4.1 WNW 11 15 6 8 - - 0.0
22/06:20pm 14.0 11.3 5.8 57 4.0 NW 9 11 5 6 - - 0.0
22/06:10pm 14.1 11.5 5.9 57 4.0 WNW 9 11 5 6 - - 0.0
22/06:00pm 14.2 11.5 5.5 56 4.2 WNW 9 11 5 6 - - 0.0
22/05:50pm 14.5 11.3 5.0 53 4.6 W 11 15 6 8 - - 0.0
22/05:40pm 14.6 10.9 4.6 51 4.8 W 13 17 7 9 - - 0.0
22/05:30pm 14.9 11.3 4.9 51 4.8 W 13 15 7 8 - - 0.0
22/05:20pm 15.6 11.3 5.1 49 5.1 W 17 20 9 11 - - 0.0
22/05:10pm 15.9 11.5 4.8 47 5.4 W 17 19 9 10 - - 0.0
22/05:00pm 16.3 12.7 4.9 46 5.6 WNW 13 17 7 9 - - 0.0
22/04:50pm 16.3 11.9 4.7 46 5.6 W 17 19 9 10 - - 0.0
22/04:40pm 16.5 12.1 4.9 46 5.7 WNW 17 20 9 11 - - 0.0
22/04:30pm 16.8 12.5 5.1 46 5.8 WNW 17 22 9 12 - - 0.0
22/04:20pm 16.5 12.1 4.9 46 5.7 W 17 22 9 12 - - 0.0
22/04:10pm 16.3 11.9 5.0 47 5.5 W 17 22 9 12 - - 0.0
22/04:00pm 16.7 12.6 6.4 50 5.2 W 17 19 9 10 - - 0.0
22/03:50pm 16.4 11.9 6.2 51 5.1 W 19 22 10 12 - - 0.0
22/03:40pm 17.4 13.0 6.4 48 5.6 WNW 19 22 10 12 - - 0.0
22/03:30pm 17.5 13.5 6.6 48 5.6 WNW 17 20 9 11 - - 0.0
22/03:20pm 17.3 13.2 6.3 48 5.6 W 17 20 9 11 - - 0.0
22/03:10pm 17.1 12.6 6.1 48 5.5 W 19 24 10 13 - - 0.0
22/03:00pm 17.0 12.7 5.3 46 5.8 W 17 20 9 11 - - 0.0
22/02:50pm 16.2 10.9 5.2 48 5.4 W 22 26 12 14 - - 0.0
22/02:40pm 17.3 12.6 5.1 44 6.0 WNW 19 22 10 12 - - 0.0
22/02:30pm 16.9 12.6 5.2 46 5.8 W 17 20 9 11 - - 0.0
22/02:20pm 17.9 13.3 5.4 43 6.2 W 19 22 10 12 - - 0.0
22/02:10pm 17.7 12.8 5.2 43 6.2 W 20 24 11 13 - - 0.0
22/02:00pm 17.1 12.4 5.3 45 5.8 W 19 22 10 12 - - 0.0
22/01:50pm 17.0 12.2 4.4 43 6.1 W 19 22 10 12 - - 0.0
22/01:40pm 17.2 12.8 4.7 43 6.1 W 17 20 9 11 - - 0.0
22/01:30pm 17.4 12.3 4.2 41 6.4 W 20 26 11 14 - - 0.0
22/01:20pm 17.9 12.9 4.4 41 6.6 W 20 24 11 13 - - 0.0
22/01:10pm 18.2 13.3 4.1 39 6.9 W 19 26 10 14 - - 0.0
22/01:00pm 18.6 13.7 5.1 41 6.7 WNW 20 24 11 13 - - 0.0
22/12:50pm 18.3 12.7 3.4 37 7.2 WNW 22 24 12 13 - - 0.0
22/12:40pm 18.9 13.3 3.3 35 7.5 WNW 22 26 12 14 - - 0.0
22/12:30pm 18.8 13.1 3.1 35 7.5 W 22 28 12 15 - - 0.0
22/12:20pm 18.7 13.5 3.8 37 7.2 W 20 26 11 14 - - 0.0
22/12:10pm 18.6 13.3 3.0 35 7.5 W 20 28 11 15 - - 0.0
22/12:00pm 18.6 14.0 3.6 37 7.3 WNW 17 19 9 10 - - 0.0
22/11:50am 18.6 13.5 3.0 35 7.5 WNW 19 20 10 11 - - 0.0
22/11:40am 18.5 14.0 4.0 38 7.1 WNW 17 22 9 12 - - 0.0
22/11:30am 18.2 13.2 3.8 38 7.0 WNW 19 20 10 11 - - 0.0
22/11:20am 18.2 13.1 3.1 36 7.2 WNW 19 22 10 12 - - 0.0
22/11:10am 18.1 13.4 3.3 37 7.1 W 17 20 9 11 - - 0.0
22/11:00am 17.9 12.5 2.6 36 7.2 W 20 22 11 12 - - 0.0
22/10:50am 17.9 12.8 3.2 37 7.0 W 19 22 10 12 - - 0.0
22/10:40am 17.6 12.4 2.3 36 7.2 W 19 24 10 13 - - 0.0
22/10:30am 17.6 12.5 2.9 37 7.0 WNW 19 22 10 12 - - 0.0
22/10:20am 17.4 12.6 2.5 37 7.0 WNW 17 20 9 11 - - 0.0
22/10:10am 17.3 13.0 3.2 39 6.7 WNW 15 19 8 10 - - 0.0
22/10:00am 17.2 12.3 2.2 36 7.0 WNW 17 19 9 10 - - 0.0
22/09:50am 17.4 13.9 5.3 45 6.0 WNW 13 17 7 9 - - 0.0
22/09:40am 17.0 13.9 5.5 46 5.7 NW 11 13 6 7 - - 0.0
22/09:30am 16.4 13.4 6.1 50 5.2 NW 11 13 6 7 - - 0.0
22/09:20am 16.0 13.5 8.1 59 4.1 NW 11 13 6 7 - - 0.0
22/09:10am 15.6 13.4 7.9 60 4.0 NW 9 11 5 6 - - 0.0
22/09:00am 15.5 13.1 7.2 57 4.2 NW 9 13 5 7 - - 12.0
22/08:50am 15.2 12.7 6.6 56 4.3 NW 9 11 5 6 - - 12.0
22/08:40am 14.7 12.2 6.7 58 4.0 NW 9 11 5 6 - - 12.0
22/08:30am 14.5 12.2 7.6 63 3.5 NW 9 11 5 6 - - 12.0
22/08:20am 14.1 11.9 7.7 65 3.3 NW 9 11 5 6 - - 12.0
22/08:10am 13.9 12.2 8.2 68 2.9 NW 7 9 4 5 - - 12.0
22/08:00am 13.9 12.3 8.2 68 2.9 N 6 9 3 5 - - 12.0
22/07:50am 13.8 12.9 7.9 67 3.0 NNE 2 4 1 2 - - 12.0
22/07:40am 13.3 12.2 6.9 65 3.2 N 2 4 1 2 - - 12.0
22/07:30am 13.0 11.8 6.6 65 3.2 NNE 2 2 1 1 - - 12.0
22/07:20am 12.2 11.5 7.0 70 2.6 CALM 0 2 0 1 - - 12.0
22/07:10am 10.8 10.1 7.1 78 1.8 CALM 0 2 0 1 - - 12.0
22/07:00am 9.7 8.6 6.9 83 1.4 ESE 2 2 1 1 - - 12.0
22/06:50am 8.7 7.9 6.7 87 1.0 CALM 0 2 0 1 - - 12.0
22/06:40am 7.7 6.5 6.4 91 0.6 S 2 2 1 1 - - 12.0
22/06:30am 7.3 6.0 6.0 91 0.6 S 2 4 1 2 - - 12.0
22/06:20am 6.9 5.5 5.6 91 0.6 SE 2 4 1 2 - - 12.0
22/06:10am 7.0 5.6 5.4 89 0.7 S 2 4 1 2 - - 12.0
22/06:00am 7.4 6.0 5.5 88 0.9 SSE 2 2 1 1 - - 12.0
22/05:50am 7.7 6.7 5.5 86 1.0 CALM 0 2 0 1 - - 12.0
22/05:40am 8.1 6.7 5.6 84 1.2 S 2 4 1 2 - - 12.0
22/05:30am 8.6 7.3 5.9 83 1.3 SSW 2 4 1 2 - - 12.0
22/05:20am 10.0 8.3 6.0 76 1.9 SSW 4 6 2 3 - - 12.0
22/05:10am 11.1 9.3 5.3 67 2.7 WSW 4 6 2 3 - - 12.0
22/04:50am 11.4 9.2 5.1 65 3.0 NW 6 7 3 4 - - 12.0
22/04:30am 10.9 9.5 5.5 69 2.6 NNE 2 4 1 2 - - 12.0
22/04:20am 11.1 8.8 4.9 65 2.9 NE 6 7 3 4 - - 12.0
22/04:10am 10.9 8.9 6.2 73 2.3 NE 6 7 3 4 - - 12.0
22/04:00am 11.1 9.4 5.8 70 2.5 E 4 7 2 4 - - 12.0
22/03:40am 12.1 9.8 4.6 60 3.5 SW 6 7 3 4 - - 12.0
22/03:30am 12.3 10.0 4.9 60 3.5 WSW 6 9 3 5 - - 12.0
22/03:20am 11.9 9.3 4.0 58 3.7 SW 7 15 4 8 - - 12.0
22/03:10am 11.5 9.7 5.3 65 2.9 SSW 4 7 2 4 - - 12.0
22/03:00am 11.7 9.5 5.4 65 3.0 SW 6 6 3 3 - - 12.0
22/02:50am 12.2 9.6 6.0 66 3.0 WSW 9 11 5 6 - - 12.0
22/02:40am 12.4 9.5 6.4 67 2.9 W 11 13 6 7 - - 12.0
22/02:30am 12.7 9.1 6.8 67 2.9 W 15 19 8 10 - - 12.0
22/02:20am 12.7 9.3 7.5 70 2.6 W 15 19 8 10 - - 12.0
22/02:10am 12.9 9.9 7.5 69 2.7 W 13 17 7 9 - - 12.0
22/02:00am 12.9 10.7 7.7 70 2.6 W 9 11 5 6 - - 12.0
22/01:50am 12.6 10.6 8.7 77 2.0 W 9 13 5 7 - - 12.0
22/01:40am 12.9 11.4 9.3 79 1.9 W 7 9 4 5 - - 12.0
22/01:30am 13.1 11.4 9.7 80 1.8 W 9 13 5 7 - - 12.0
22/01:20am 13.6 12.0 10.1 79 1.9 W 9 11 5 6 - - 12.0
22/01:10am 14.1 12.5 10.2 77 2.1 W 9 13 5 7 - - 12.0
22/01:00am 14.3 12.4 10.4 77 2.1 W 11 13 6 7 - - 12.0
22/12:50am 14.5 12.2 10.6 77 2.1 W 13 15 7 8 - - 12.0
22/12:40am 14.4 12.6 10.9 79 1.9 W 11 15 6 8 - - 12.0
22/12:30am 13.8 13.4 13.0 95 0.5 W 7 7 4 4 - - 12.0
22/12:20am 13.9 13.8 13.2 96 0.4 WNW 6 6 3 3 - - 12.0
22/12:10am 14.0 14.3 13.4 96 0.3 NW 4 6 2 3 - - 12.0
22/12:00am 14.1 14.1 13.5 96 0.3 WNW 6 7 3 4 - - 12.0
 
Date/Time
EST
Temp
°C
App
Temp
°C
Dew
Point
°C
Rel
Hum
%
Delta-T
°C
Wind Press
QNH
hPa
Press
MSL
hPa
Rain since
9am
mm
Dir  Spd
km/h
Gust
km/h
Spd
kts
Gust
kts
21/11:50pm 14.1 14.5 13.6 97 0.3 NW 4 6 2 3 - - 12.0
21/11:40pm 14.1 14.1 13.5 96 0.3 NW 6 6 3 3 - - 12.0
21/11:30pm 14.1 14.4 13.5 96 0.3 NNW 4 7 2 4 - - 11.8
21/11:20pm 14.2 14.5 13.5 96 0.4 NNW 4 4 2 2 - - 11.6
21/11:10pm 14.3 14.7 13.6 96 0.4 NW 4 6 2 3 - - 11.6
21/11:00pm 14.4 14.4 13.6 95 0.5 WNW 6 7 3 4 - - 11.6
21/10:50pm 14.6 14.4 13.5 93 0.6 WSW 7 9 4 5 - - 9.6
21/10:40pm 14.5 14.8 13.4 93 0.6 WNW 4 6 2 3 - - 7.6
21/10:30pm 14.4 14.3 13.4 94 0.6 N 6 7 3 4 - - 7.4
21/10:20pm 14.4 14.8 13.6 95 0.5 NE 4 7 2 4 - - 7.4
21/10:10pm 14.4 15.2 13.6 95 0.5 E 2 2 1 1 - - 7.4
21/10:00pm 14.4 14.8 13.7 96 0.4 NNE 4 4 2 2 - - 7.4

Other formats

Comma delimited format used in spreadsheet applications
http://www.bom.gov.au/fwo/IDN60801/IDN60801.99146.axf

JavaScript Object Notation format (JSON) in row-major order
http://www.bom.gov.au/fwo/IDN60801/IDN60801.99146.json

Data quality

Most of these data are generated automatically and are frequently updated. Quality checks on data are not normally performed. It is possible for incorrect values to appear. Refer to information at About Latest Weather Observations and please check the disclaimer before using these data.